createdAt,value
2019-02-24T00:02:52.472Z,1.37
2019-02-24T00:05:56.363Z,1.33
2019-02-24T00:09:00.188Z,1.28
2019-02-24T00:12:04.088Z,1.27
2019-02-24T00:15:08.117Z,1.24
2019-02-24T00:18:11.931Z,1.18
2019-02-24T00:21:15.806Z,1.14
2019-02-24T00:24:19.745Z,1.11
2019-02-24T00:27:23.577Z,1.11
2019-02-24T00:30:27.413Z,1.11
2019-02-24T00:33:31.250Z,1.09
2019-02-24T00:36:35.099Z,1.12
2019-02-24T00:39:38.952Z,1.06
2019-02-24T00:42:42.783Z,1.02
2019-02-24T00:45:46.614Z,0.98
2019-02-24T00:48:50.451Z,0.95
2019-02-24T00:51:54.272Z,0.92
2019-02-24T00:54:58.073Z,0.92
2019-02-24T00:58:01.902Z,0.92
2019-02-24T01:01:05.723Z,0.90
2019-02-24T01:04:09.677Z,0.82
2019-02-24T01:07:13.564Z,0.81
2019-02-24T01:10:17.410Z,0.80
2019-02-24T01:13:21.341Z,0.80
2019-02-24T01:16:25.252Z,0.77
2019-02-24T01:19:29.105Z,0.77
2019-02-24T01:22:32.937Z,0.72
2019-02-24T01:25:36.843Z,0.69
2019-02-24T01:28:40.698Z,0.69
2019-02-24T01:31:44.514Z,0.67
2019-02-24T01:34:48.361Z,0.65
2019-02-24T01:37:52.270Z,0.61
2019-02-24T01:40:56.072Z,0.60
2019-02-24T01:43:59.893Z,0.58
2019-02-24T01:47:03.689Z,0.57
2019-02-24T01:50:08.452Z,0.57
2019-02-24T01:53:12.254Z,0.58
2019-02-24T01:56:16.103Z,0.59
2019-02-24T01:59:19.954Z,0.63
2019-02-24T02:02:23.840Z,0.64
2019-02-24T02:05:27.693Z,0.66
2019-02-24T02:08:31.590Z,0.66
2019-02-24T02:11:35.425Z,0.67
2019-02-24T02:14:39.323Z,0.69
2019-02-24T02:17:43.178Z,0.70
2019-02-24T02:20:47.130Z,0.71
2019-02-24T02:23:50.924Z,0.71
2019-02-24T02:26:55.319Z,0.74
2019-02-24T02:29:59.141Z,0.72
2019-02-24T02:33:02.969Z,0.75
2019-02-24T02:36:06.808Z,0.80
2019-02-24T02:39:10.609Z,0.81
2019-02-24T02:42:14.431Z,0.82
2019-02-24T02:45:18.309Z,0.77
2019-02-24T02:48:22.209Z,0.79
2019-02-24T02:51:26.070Z,0.81
2019-02-24T02:54:29.891Z,0.83
2019-02-24T02:57:33.782Z,0.83
2019-02-24T03:00:37.622Z,0.82
2019-02-24T03:03:41.446Z,0.80
2019-02-24T03:06:53.140Z,0.78
2019-02-24T03:09:57.030Z,0.74
2019-02-24T03:13:00.863Z,0.69
2019-02-24T03:16:04.833Z,0.65
2019-02-24T03:19:08.715Z,0.63
2019-02-24T03:22:12.563Z,0.63
2019-02-24T03:25:16.384Z,0.62
2019-02-24T03:28:20.299Z,0.61
2019-02-24T03:31:24.114Z,0.61
2019-02-24T03:34:27.937Z,0.62
2019-02-24T03:37:31.855Z,0.64
2019-02-24T03:40:35.944Z,0.64
2019-02-24T03:43:39.844Z,0.65
2019-02-24T03:46:43.753Z,0.66
2019-02-24T03:49:47.546Z,0.67
2019-02-24T03:52:51.451Z,0.67
2019-02-24T03:55:57.530Z,0.69
2019-02-24T03:59:01.166Z,0.73
2019-02-24T04:02:05.034Z,0.76
2019-02-24T04:05:08.995Z,0.77
2019-02-24T04:08:12.817Z,0.78
2019-02-24T04:11:16.692Z,0.83
2019-02-24T04:14:20.552Z,0.81
2019-02-24T04:17:25.756Z,0.75
2019-02-24T04:20:29.541Z,0.73
2019-02-24T04:23:33.482Z,0.69
2019-02-24T04:26:37.300Z,0.67
2019-02-24T04:29:41.178Z,0.61
2019-02-24T04:32:44.961Z,0.65
2019-02-24T04:35:48.823Z,0.54
2019-02-24T04:38:52.661Z,0.47
2019-02-24T04:41:56.520Z,0.38
2019-02-24T04:45:00.316Z,0.36
2019-02-24T04:48:04.287Z,0.32
2019-02-24T04:51:08.148Z,0.30
2019-02-24T04:54:11.969Z,0.27
2019-02-24T04:57:15.883Z,0.24
2019-02-24T05:00:19.722Z,0.22
2019-02-24T05:03:23.621Z,0.21
2019-02-24T05:06:27.458Z,0.18
2019-02-24T05:09:31.299Z,0.15
2019-02-24T05:12:35.109Z,0.15
2019-02-24T05:15:38.967Z,0.11
2019-02-24T05:18:42.807Z,0.09
2019-02-24T05:21:46.689Z,0.07
2019-02-24T05:24:50.498Z,0.04
2019-02-24T05:27:54.446Z,0.02
2019-02-24T05:30:58.347Z,0.01
2019-02-24T05:34:02.189Z,0.02
2019-02-24T05:37:06.044Z,0.02
2019-02-24T05:40:10.006Z,0.04
2019-02-24T05:43:13.848Z,0.02
2019-02-24T05:46:17.675Z,0.03
2019-02-24T05:49:21.518Z,0.03
2019-02-24T05:52:25.352Z,0.00
2019-02-24T05:55:29.175Z,-0.05
2019-02-24T05:58:32.977Z,-0.05
2019-02-24T06:01:36.842Z,-0.07
2019-02-24T06:04:40.667Z,-0.05
2019-02-24T06:07:44.554Z,-0.04
2019-02-24T06:10:48.428Z,-0.02
2019-02-24T06:13:52.301Z,-0.05
2019-02-24T06:16:56.088Z,-0.06
2019-02-24T06:19:59.937Z,-0.09
2019-02-24T06:23:03.775Z,-0.10
2019-02-24T06:26:07.644Z,-0.09
2019-02-24T06:29:11.464Z,-0.08
2019-02-24T06:32:15.282Z,-0.05
2019-02-24T06:35:19.218Z,-0.08
2019-02-24T06:38:23.112Z,-0.11
2019-02-24T06:41:26.932Z,-0.10
2019-02-24T06:44:30.781Z,-0.04
2019-02-24T06:47:34.605Z,0.06
2019-02-24T06:50:52.935Z,-0.05
2019-02-24T06:53:56.827Z,-0.09
2019-02-24T06:57:00.689Z,-0.07
2019-02-24T07:00:13.556Z,-0.05
2019-02-24T07:03:10.343Z,-0.02
2019-02-24T07:06:14.227Z,0.01
2019-02-24T07:09:19.146Z,0.04
2019-02-24T07:12:23.107Z,0.11
2019-02-24T07:15:26.901Z,0.17
2019-02-24T07:18:30.758Z,0.16
2019-02-24T07:21:34.672Z,0.23
2019-02-24T07:24:38.498Z,0.31
2019-02-24T07:27:42.375Z,0.32
2019-02-24T07:30:46.243Z,0.35
2019-02-24T07:33:50.343Z,0.41
2019-02-24T07:36:54.177Z,0.43
2019-02-24T07:40:00.761Z,0.49
2019-02-24T07:43:04.833Z,0.58
2019-02-24T07:46:11.968Z,0.64
2019-02-24T07:49:15.921Z,0.69
2019-02-24T07:52:25.417Z,0.75
2019-02-24T07:55:32.535Z,0.84
2019-02-24T07:58:42.592Z,0.93
2019-02-24T08:01:42.680Z,1.06
2019-02-24T08:04:46.690Z,1.27
2019-02-24T08:07:50.667Z,1.32
2019-02-24T08:10:54.611Z,1.39
2019-02-24T08:13:58.435Z,1.45
2019-02-24T08:17:05.395Z,1.60
2019-02-24T08:20:16.088Z,1.71
2019-02-24T08:23:20.607Z,1.85
2019-02-24T08:26:28.330Z,1.95
2019-02-24T08:29:33.313Z,2.07
2019-02-24T08:32:40.125Z,2.15
2019-02-24T09:00:16.081Z,3.84
2019-02-24T09:06:57.961Z,4.25
2019-02-24T09:10:02.834Z,4.32
2019-02-24T09:13:06.919Z,4.41
2019-02-24T09:16:10.812Z,4.60
2019-02-24T09:19:14.775Z,4.61
2019-02-24T09:22:19.229Z,4.73
2019-02-24T09:25:23.139Z,4.82
2019-02-24T09:28:28.915Z,4.91
2019-02-24T09:31:32.798Z,5.12
2019-02-24T09:34:36.727Z,5.24
2019-02-24T09:37:40.813Z,5.32
2019-02-24T09:40:44.703Z,5.50
2019-02-24T09:43:48.577Z,5.73
2019-02-24T09:46:53.280Z,5.88
2019-02-24T09:49:57.078Z,6.04
2019-02-24T09:53:00.986Z,6.10
2019-02-24T09:56:04.854Z,6.18
2019-02-24T09:59:08.692Z,6.29
2019-02-24T10:02:12.683Z,6.41
2019-02-24T10:05:16.677Z,6.45
2019-02-24T10:08:20.582Z,6.69
2019-02-24T10:11:24.552Z,6.72
2019-02-24T10:14:28.470Z,6.88
2019-02-24T10:17:32.370Z,7.25
2019-02-24T10:20:36.284Z,7.35
2019-02-24T10:23:40.165Z,7.41
2019-02-24T10:26:44.074Z,7.57
2019-02-24T10:29:47.924Z,7.53
2019-02-24T10:32:52.527Z,7.55
2019-02-24T10:35:56.455Z,7.62
2019-02-24T10:39:00.305Z,7.58
2019-02-24T10:42:04.155Z,7.70
2019-02-24T10:45:10.002Z,8.00
2019-02-24T10:48:14.466Z,8.06
2019-02-24T10:51:18.343Z,8.26
2019-02-24T10:54:22.140Z,8.23
2019-02-24T10:57:25.972Z,8.25
2019-02-24T11:00:29.862Z,8.29
2019-02-24T11:03:35.453Z,8.40
2019-02-24T11:06:39.239Z,8.49
2019-02-24T11:09:43.059Z,8.54
2019-02-24T11:12:46.888Z,8.63
2019-02-24T11:15:50.726Z,8.68
2019-02-24T11:18:54.526Z,8.93
2019-02-24T11:21:58.428Z,8.97
2019-02-24T11:25:02.258Z,9.01
2019-02-24T11:28:06.142Z,9.32
2019-02-24T11:31:14.158Z,9.45
2019-02-24T11:34:23.439Z,9.57
2019-02-24T11:37:52.978Z,9.54
2019-02-24T11:40:59.080Z,9.62
2019-02-24T11:44:04.029Z,9.61
2019-02-24T11:47:12.607Z,9.75
2019-02-24T11:50:18.061Z,9.72
2019-02-24T11:53:23.517Z,9.83
2019-02-24T11:56:28.863Z,9.82
2019-02-24T11:59:34.498Z,9.99
2019-02-24T12:02:41.726Z,10.17
2019-02-24T12:05:47.094Z,9.99
2019-02-24T12:08:52.007Z,9.99
2019-02-24T12:11:57.244Z,10.22
2019-02-24T12:15:03.003Z,10.21
2019-02-24T12:18:08.389Z,10.29
2019-02-24T12:21:18.825Z,10.44
2019-02-24T12:24:24.285Z,10.40
2019-02-24T12:27:29.493Z,10.41
2019-02-24T12:30:34.890Z,10.56
2019-02-24T12:33:40.511Z,10.74
2019-02-24T12:36:45.578Z,10.71
2019-02-24T12:39:50.421Z,10.68
2019-02-24T12:42:54.904Z,10.72
2019-02-24T12:46:04.040Z,10.72
2019-02-24T12:49:09.788Z,10.97
2019-02-24T12:52:15.333Z,11.07
2019-02-24T12:55:20.841Z,10.98
2019-02-24T12:58:25.991Z,11.07
2019-02-24T13:01:31.526Z,11.03
2019-02-24T13:04:38.335Z,11.06
2019-02-24T13:07:43.500Z,11.29
2019-02-24T13:10:48.825Z,11.41
2019-02-24T13:13:54.270Z,11.41
2019-02-24T13:16:59.636Z,11.51
2019-02-24T13:20:04.673Z,11.37
2019-02-24T13:23:11.541Z,11.31
2019-02-24T13:26:16.992Z,11.45
2019-02-24T13:29:20.944Z,11.49
2019-02-24T13:32:27.080Z,11.38
2019-02-24T13:35:30.937Z,11.52
2019-02-24T13:38:34.784Z,11.44
2019-02-24T13:41:38.682Z,11.49
2019-02-24T13:44:42.491Z,11.52
2019-02-24T13:47:46.499Z,11.54
2019-02-24T13:50:50.419Z,11.67
2019-02-24T13:53:54.241Z,11.79
2019-02-24T13:56:58.136Z,11.65
2019-02-24T14:00:01.996Z,11.61
2019-02-24T14:03:05.832Z,11.39
2019-02-24T14:06:09.644Z,11.44
2019-02-24T14:09:13.831Z,11.40
2019-02-24T14:12:17.721Z,11.39
2019-02-24T14:15:21.609Z,11.29
2019-02-24T14:18:25.526Z,11.12
2019-02-24T14:21:29.461Z,11.10
2019-02-24T14:24:33.310Z,11.08
2019-02-24T14:27:37.352Z,11.14
2019-02-24T14:30:41.209Z,11.25
2019-02-24T14:33:45.025Z,11.23
2019-02-24T14:36:48.846Z,11.14
2019-02-24T14:39:52.703Z,11.08
2019-02-24T14:42:56.561Z,11.16
2019-02-24T14:46:00.498Z,11.09
2019-02-24T14:49:04.411Z,11.14
2019-02-24T14:52:08.273Z,11.05
2019-02-24T14:55:12.353Z,10.95
2019-02-24T14:58:16.296Z,10.95
2019-02-24T15:01:20.181Z,10.97
2019-02-24T15:04:24.016Z,10.98
2019-02-24T15:07:27.846Z,10.87
2019-02-24T15:10:31.682Z,10.79
2019-02-24T15:13:35.507Z,10.58
2019-02-24T15:16:40.297Z,10.60
2019-02-24T15:19:44.141Z,10.53
2019-02-24T15:22:47.948Z,10.50
2019-02-24T15:25:51.868Z,10.38
2019-02-24T15:28:55.728Z,10.32
2019-02-24T15:31:59.545Z,10.43
2019-02-24T15:35:03.367Z,10.55
2019-02-24T15:38:07.342Z,10.34
2019-02-24T15:41:11.162Z,10.36
2019-02-24T15:44:14.990Z,10.24
2019-02-24T15:47:18.801Z,10.22
2019-02-24T15:50:22.713Z,10.15
2019-02-24T15:53:26.523Z,10.11
2019-02-24T15:56:31.097Z,9.92
2019-02-24T15:59:34.908Z,9.98
2019-02-24T16:02:38.711Z,9.95
2019-02-24T16:05:42.587Z,9.98
2019-02-24T16:08:46.394Z,9.66
2019-02-24T16:11:50.202Z,9.65
2019-02-24T16:14:54.031Z,9.60
2019-02-24T16:17:57.877Z,9.62
2019-02-24T16:21:01.683Z,9.50
2019-02-24T16:24:05.661Z,9.34
2019-02-24T16:27:09.452Z,9.23
2019-02-24T16:30:13.465Z,9.06
2019-02-24T16:33:17.278Z,8.88
2019-02-24T16:36:21.109Z,8.77
2019-02-24T16:39:24.946Z,8.69
2019-02-24T16:42:28.766Z,8.73
2019-02-24T16:45:32.661Z,8.72
2019-02-24T16:48:36.813Z,8.64
2019-02-24T16:51:40.634Z,8.42
2019-02-24T16:54:52.496Z,8.28
2019-02-24T16:57:50.055Z,8.08
2019-02-24T17:00:53.876Z,7.96
2019-02-24T17:03:57.682Z,7.84
2019-02-24T17:07:01.626Z,7.74
2019-02-24T17:10:06.017Z,7.60
2019-02-24T17:13:09.853Z,7.46
2019-02-24T17:16:13.825Z,7.39
2019-02-24T17:19:17.638Z,7.29
2019-02-24T17:22:21.444Z,7.20
2019-02-24T17:25:25.401Z,7.12
2019-02-24T17:28:29.322Z,7.01
2019-02-24T17:31:33.157Z,6.90
2019-02-24T17:34:37.014Z,6.83
2019-02-24T17:37:40.975Z,6.66
2019-02-24T17:40:44.827Z,6.47
2019-02-24T17:43:48.664Z,6.38
2019-02-24T17:46:52.530Z,6.30
2019-02-24T17:49:56.331Z,6.26
2019-02-24T17:53:00.177Z,6.27
2019-02-24T17:56:04.006Z,6.18
2019-02-24T17:59:07.834Z,6.08
2019-02-24T18:02:11.682Z,6.03
2019-02-24T18:05:15.568Z,6.00
2019-02-24T18:08:27.899Z,5.96
2019-02-24T18:11:26.155Z,5.91
2019-02-24T18:14:29.968Z,5.85
2019-02-24T18:17:34.230Z,5.81
2019-02-24T18:20:38.104Z,5.74
2019-02-24T18:23:41.960Z,5.65
2019-02-24T18:26:46.071Z,5.55
2019-02-24T18:29:49.934Z,5.46
2019-02-24T18:32:54.047Z,5.40
2019-02-24T18:35:57.863Z,5.35
2019-02-24T18:39:01.687Z,5.28
2019-02-24T18:42:05.681Z,5.25
2019-02-24T18:45:10.087Z,5.18
2019-02-24T18:48:14.043Z,5.12
2019-02-24T18:51:17.850Z,5.08
2019-02-24T18:54:21.873Z,5.04
2019-02-24T18:57:25.692Z,4.98
2019-02-24T19:00:29.613Z,4.90
2019-02-24T19:03:33.549Z,4.82
2019-02-24T19:06:39.405Z,4.76
2019-02-24T19:09:43.002Z,4.71
2019-02-24T19:12:47.006Z,4.64
2019-02-24T19:15:51.445Z,4.55
2019-02-24T19:18:55.309Z,4.51
2019-02-24T19:21:59.255Z,4.41
2019-02-24T19:25:03.653Z,4.36
2019-02-24T19:28:07.575Z,4.29
2019-02-24T19:31:11.430Z,4.22
2019-02-24T19:34:15.188Z,4.17
2019-02-24T19:37:19.047Z,4.13
2019-02-24T19:40:23.355Z,4.13
2019-02-24T19:43:27.525Z,4.15
2019-02-24T19:46:31.638Z,4.13
2019-02-24T19:49:35.699Z,4.09
2019-02-24T19:52:39.783Z,4.06
2019-02-24T19:55:43.925Z,4.04
2019-02-24T19:58:49.115Z,3.99
2019-02-24T20:01:53.131Z,3.94
2019-02-24T20:04:57.156Z,3.89
2019-02-24T20:08:01.110Z,3.86
2019-02-24T20:11:05.364Z,3.83
2019-02-24T20:14:09.473Z,3.79
2019-02-24T20:17:13.816Z,3.76
2019-02-24T20:20:20.207Z,3.68
2019-02-24T20:23:24.310Z,3.63
2019-02-24T20:26:28.385Z,3.57
2019-02-24T20:29:33.485Z,3.54
2019-02-24T20:32:37.505Z,3.54
2019-02-24T20:35:41.554Z,3.49
2019-02-24T20:38:45.671Z,3.47
2019-02-24T20:41:50.451Z,3.49
2019-02-24T20:44:56.030Z,3.36
2019-02-24T20:48:00.397Z,3.33
2019-02-24T20:51:04.854Z,3.36
2019-02-24T20:54:10.266Z,3.34
2019-02-24T20:57:17.371Z,3.34
2019-02-24T21:00:24.315Z,3.33
2019-02-24T21:03:28.643Z,3.27
2019-02-24T21:06:33.413Z,3.22
2019-02-24T21:09:37.780Z,3.15
2019-02-24T21:12:41.922Z,3.09
2019-02-24T21:15:46.307Z,3.05
2019-02-24T21:19:03.574Z,3.02
2019-02-24T21:22:07.975Z,3.01
2019-02-24T21:25:12.287Z,2.99
2019-02-24T21:28:16.715Z,2.99
